createdAt,value
2016-12-28T00:00:18.328Z,0
2016-12-28T00:01:17.973Z,0
2016-12-28T00:02:17.935Z,0
2016-12-28T00:03:17.583Z,0
2016-12-28T00:04:17.543Z,0
2016-12-28T00:05:18.106Z,0
2016-12-28T00:06:18.066Z,0
2016-12-28T00:07:18.017Z,0
2016-12-28T00:08:17.706Z,0
2016-12-28T00:09:17.927Z,0
2016-12-28T00:10:17.892Z,0
2016-12-28T00:11:17.843Z,0
2016-12-28T00:12:17.495Z,0
2016-12-28T00:13:17.757Z,0
2016-12-28T00:14:17.404Z,0
2016-12-28T00:15:17.064Z,0
2016-12-28T00:16:17.320Z,0
2016-12-28T00:17:16.671Z,0
2016-12-28T00:18:17.236Z,0
2016-12-28T00:19:17.192Z,0
2016-12-28T00:20:17.447Z,0
2016-12-28T00:21:17.119Z,0
2016-12-28T00:22:17.065Z,0
2016-12-28T00:23:17.322Z,0
2016-12-28T00:24:16.975Z,0
2016-12-28T00:25:16.641Z,0
2016-12-28T00:26:16.580Z,0
2016-12-28T00:27:17.146Z,0
2016-12-28T00:28:16.796Z,0
2016-12-28T00:29:16.758Z,0
2016-12-28T00:30:16.407Z,0
2016-12-28T00:31:16.965Z,0
2016-12-28T00:32:16.019Z,0
2016-12-28T00:33:16.877Z,0
2016-12-28T00:34:16.840Z,0
2016-12-28T00:35:16.801Z,0
2016-12-28T00:36:16.148Z,0
2016-12-28T00:37:16.707Z,0
2016-12-28T00:38:16.675Z,0
2016-12-28T00:39:16.614Z,0
2016-12-28T00:40:16.272Z,0
2016-12-28T00:41:16.534Z,0
2016-12-28T00:42:15.576Z,0
2016-12-28T00:43:16.452Z,0
2016-12-28T00:44:15.801Z,0
2016-12-28T00:45:16.056Z,0
2016-12-28T00:46:16.318Z,0
2016-12-28T00:47:16.265Z,0
2016-12-28T00:48:16.227Z,0
2016-12-28T00:49:15.579Z,0
2016-12-28T00:50:16.136Z,0
2016-12-28T00:51:15.800Z,0
2016-12-28T00:52:16.053Z,0
2016-12-28T00:53:15.710Z,0
2016-12-28T00:54:15.656Z,0
2016-12-28T00:55:15.920Z,0
2016-12-28T00:56:15.872Z,0
2016-12-28T00:57:15.227Z,0
2016-12-28T00:58:15.481Z,0
2016-12-28T00:59:15.757Z,0
2016-12-28T01:00:15.700Z,0
2016-12-28T01:01:15.354Z,0
2016-12-28T01:02:15.313Z,0
2016-12-28T01:03:15.270Z,0
2016-12-28T01:04:15.543Z,0
2016-12-28T01:05:15.174Z,0
2016-12-28T01:06:15.133Z,0
2016-12-28T01:07:15.393Z,0
2016-12-28T01:08:15.352Z,0
2016-12-28T01:09:15.306Z,0
2016-12-28T01:10:14.960Z,0
2016-12-28T01:11:15.216Z,0
2016-12-28T01:12:15.176Z,0
2016-12-28T01:13:14.828Z,0
2016-12-28T01:14:15.085Z,0
2016-12-28T01:15:15.042Z,0
2016-12-28T01:16:14.695Z,0
2016-12-28T01:17:14.354Z,0
2016-12-28T01:18:14.910Z,0
2016-12-28T01:19:14.562Z,0
2016-12-28T01:20:14.823Z,0
2016-12-28T01:21:14.478Z,0
2016-12-28T01:22:14.742Z,0
2016-12-28T01:23:14.393Z,0
2016-12-28T01:24:14.342Z,0
2016-12-28T01:25:14.606Z,0
2016-12-28T01:26:14.256Z,0
2016-12-28T01:27:14.547Z,0
2016-12-28T01:28:14.173Z,0
2016-12-28T01:29:14.432Z,0
2016-12-28T01:30:14.114Z,0
2016-12-28T01:31:14.368Z,0
2016-12-28T01:32:14.296Z,0
2016-12-28T01:33:13.947Z,0
2016-12-28T01:34:13.905Z,0
2016-12-28T01:35:13.259Z,0
2016-12-28T01:36:14.120Z,0
2016-12-28T01:37:13.781Z,0
2016-12-28T01:38:13.727Z,0
2016-12-28T01:39:13.699Z,0
2016-12-28T01:40:13.643Z,0
2016-12-28T01:41:13.601Z,0
2016-12-28T01:42:13.858Z,0
2016-12-28T01:43:13.510Z,0
2016-12-28T01:44:13.513Z,0
2016-12-28T01:45:13.422Z,0
2016-12-28T01:46:13.078Z,0
2016-12-28T01:47:13.347Z,0
2016-12-28T01:48:12.688Z,0
2016-12-28T01:49:13.555Z,0
2016-12-28T01:50:12.901Z,0
2016-12-28T01:51:13.165Z,0
2016-12-28T01:52:13.112Z,0
2016-12-28T01:53:12.776Z,0
2016-12-28T01:54:13.330Z,0
2016-12-28T01:55:13.290Z,0
2016-12-28T01:56:13.246Z,0
2016-12-28T01:57:13.201Z,0
2016-12-28T01:58:13.159Z,0
2016-12-28T01:59:13.111Z,0
2016-12-28T02:00:13.064Z,0
2016-12-28T02:01:12.721Z,0
2016-12-28T02:02:12.379Z,0
2016-12-28T02:03:12.942Z,0
2016-12-28T02:04:12.591Z,0
2016-12-28T02:05:12.545Z,0
2016-12-28T02:06:12.804Z,0
2016-12-28T02:07:12.761Z,0
2016-12-28T02:08:12.412Z,0
2016-12-28T02:09:12.676Z,0
2016-12-28T02:10:12.327Z,0
2016-12-28T02:11:12.586Z,0
2016-12-28T02:12:12.249Z,0
2016-12-28T02:13:12.493Z,0
2016-12-28T02:14:11.849Z,0
2016-12-28T02:15:12.101Z,0
2016-12-28T02:16:12.059Z,0
2016-12-28T02:17:12.019Z,0
2016-12-28T02:18:11.978Z,0
2016-12-28T02:19:11.928Z,0
2016-12-28T02:20:12.188Z,0
2016-12-28T02:21:11.841Z,0
2016-12-28T02:22:12.099Z,0
2016-12-28T02:23:11.449Z,0
2016-12-28T02:24:11.713Z,0
2016-12-28T02:25:11.367Z,0
2016-12-28T02:26:11.311Z,0
2016-12-28T02:27:11.580Z,0
2016-12-28T02:28:11.228Z,0
2016-12-28T02:29:11.519Z,0
2016-12-28T02:30:11.745Z,0
2016-12-28T02:31:11.418Z,0
2016-12-28T02:32:11.656Z,0
2016-12-28T02:33:11.309Z,0
2016-12-28T02:34:11.576Z,0
2016-12-28T02:35:11.527Z,0
2016-12-28T02:36:11.487Z,0
2016-12-28T02:37:10.828Z,0
2016-12-28T02:38:11.396Z,0
2016-12-28T02:39:10.740Z,0
2016-12-28T02:40:11.300Z,0
2016-12-28T02:41:10.956Z,0
2016-12-28T02:42:11.214Z,0
2016-12-28T02:43:10.572Z,0
2016-12-28T02:44:10.824Z,0
2016-12-28T02:45:11.083Z,0
2016-12-28T02:46:10.743Z,0
2016-12-28T02:47:10.688Z,0
2016-12-28T02:48:10.945Z,0
2016-12-28T02:49:10.905Z,0
2016-12-28T02:50:10.564Z,0
2016-12-28T02:51:10.213Z,0
2016-12-28T02:52:10.474Z,0
2016-12-28T02:53:10.427Z,0
2016-12-28T02:54:10.683Z,0
2016-12-28T02:55:10.669Z,0
2016-12-28T02:56:10.590Z,0
2016-12-28T02:57:10.247Z,0
2016-12-28T02:58:10.209Z,0
2016-12-28T02:59:10.462Z,0
2016-12-28T03:00:10.117Z,0
2016-12-28T03:01:10.623Z,0
2016-12-28T03:02:10.328Z,0
2016-12-28T03:03:09.988Z,0
2016-12-28T03:04:09.944Z,0
2016-12-28T03:05:10.198Z,0
2016-12-28T03:06:10.152Z,0
2016-12-28T03:07:10.113Z,0
2016-12-28T03:08:10.062Z,0
2016-12-28T03:09:09.720Z,0
2016-12-28T03:10:09.674Z,0
2016-12-28T03:11:09.932Z,0
2016-12-28T03:12:09.592Z,0
2016-12-28T03:13:09.542Z,0
2016-12-28T03:14:09.803Z,0
2016-12-28T03:15:09.448Z,0
2016-12-28T03:16:09.412Z,0
2016-12-28T03:17:09.369Z,0
2016-12-28T03:18:09.623Z,0
2016-12-28T03:19:09.581Z,0
2016-12-28T03:20:09.079Z,0
2016-12-28T03:21:08.729Z,0
2016-12-28T03:22:08.695Z,0
2016-12-28T03:23:08.948Z,0
2016-12-28T03:24:08.611Z,0
2016-12-28T03:25:08.894Z,0
2016-12-28T03:26:08.814Z,0
2016-12-28T03:27:08.464Z,0
2016-12-28T03:28:08.723Z,0
2016-12-28T03:29:08.683Z,0
2016-12-28T03:30:23.238Z,0
2016-12-28T03:31:08.591Z,0
2016-12-28T03:32:08.249Z,0
2016-12-28T03:33:08.500Z,0
2016-12-28T03:34:08.466Z,0
2016-12-28T03:35:08.113Z,0
2016-12-28T03:36:08.069Z,0
2016-12-28T03:37:08.324Z,0
2016-12-28T03:38:08.285Z,0
2016-12-28T03:39:07.933Z,0
2016-12-28T03:40:08.192Z,0
2016-12-28T03:41:08.157Z,0
2016-12-28T03:42:08.104Z,0
2016-12-28T03:43:08.061Z,0
2016-12-28T03:44:08.017Z,0
2016-12-28T03:45:07.672Z,0
2016-12-28T03:46:07.322Z,0
2016-12-28T03:47:07.610Z,0
2016-12-28T03:48:07.538Z,0
2016-12-28T03:49:07.499Z,0
2016-12-28T03:50:07.754Z,0
2016-12-28T03:51:07.403Z,0
2016-12-28T03:52:07.360Z,0
2016-12-28T03:53:07.620Z,0
2016-12-28T03:54:07.573Z,0
2016-12-28T03:55:07.534Z,0
2016-12-28T03:56:07.184Z,0
2016-12-28T03:57:07.448Z,0
2016-12-28T03:58:07.398Z,0
2016-12-28T03:59:07.056Z,0
2016-12-28T04:00:07.308Z,0
2016-12-28T04:01:07.272Z,0
2016-12-28T04:02:07.221Z,0
2016-12-28T04:03:07.184Z,0
2016-12-28T04:04:07.132Z,0
2016-12-28T04:05:07.087Z,0
2016-12-28T04:06:06.439Z,0
2016-12-28T04:07:06.693Z,0
2016-12-28T04:08:06.960Z,0
2016-12-28T04:09:06.908Z,0
2016-12-28T04:10:06.261Z,0
2016-12-28T04:11:06.824Z,0
2016-12-28T04:12:06.478Z,0
2016-12-28T04:13:06.473Z,0
2016-12-28T04:14:06.690Z,0
2016-12-28T04:15:06.342Z,0
2016-12-28T04:16:06.607Z,0
2016-12-28T04:17:06.555Z,0
2016-12-28T04:18:06.211Z,0
2016-12-28T04:19:06.172Z,0
2016-12-28T04:20:06.119Z,0
2016-12-28T04:21:06.378Z,0
2016-12-28T04:22:06.031Z,0
2016-12-28T04:23:06.296Z,0
2016-12-28T04:24:05.645Z,0
2016-12-28T04:25:05.902Z,0
2016-12-28T04:26:06.161Z,0
2016-12-28T04:27:06.114Z,0
2016-12-28T04:28:06.070Z,0
2016-12-28T04:29:05.737Z,0
2016-12-28T04:30:05.982Z,0
2016-12-28T04:31:05.935Z,0
2016-12-28T04:32:05.596Z,0
2016-12-28T04:33:05.545Z,0
2016-12-28T04:34:05.803Z,0
2016-12-28T04:35:05.765Z,0
2016-12-28T04:36:05.714Z,0
2016-12-28T04:37:05.679Z,0
2016-12-28T04:38:05.324Z,0
2016-12-28T04:39:05.582Z,0
2016-12-28T04:40:05.244Z,0
2016-12-28T04:41:05.492Z,0
2016-12-28T04:42:05.148Z,0
2016-12-28T04:43:05.101Z,0
2016-12-28T04:44:05.060Z,0
2016-12-28T04:45:05.016Z,0
2016-12-28T04:46:04.971Z,0
2016-12-28T04:47:05.232Z,0
2016-12-28T04:48:05.189Z,0
2016-12-28T04:49:05.137Z,0
2016-12-28T04:50:05.094Z,0
2016-12-28T04:51:05.063Z,0
2016-12-28T04:52:04.729Z,0
2016-12-28T04:53:04.962Z,0
2016-12-28T04:54:04.918Z,0
2016-12-28T04:55:04.571Z,0
2016-12-28T04:56:04.830Z,0
2016-12-28T04:57:04.512Z,0
2016-12-28T04:58:04.438Z,0
2016-12-28T04:59:04.704Z,0
2016-12-28T05:00:04.350Z,0
2016-12-28T05:01:04.611Z,0
2016-12-28T05:02:04.257Z,0
2016-12-28T05:03:04.521Z,0
2016-12-28T05:04:04.481Z,0
2016-12-28T05:05:04.131Z,0
2016-12-28T05:06:04.091Z,0
2016-12-28T05:07:04.044Z,0
2016-12-28T05:08:04.000Z,0
2016-12-28T05:09:03.952Z,0
2016-12-28T05:10:04.207Z,0
2016-12-28T05:11:03.863Z,0
2016-12-28T05:12:04.121Z,0
2016-12-28T05:13:03.472Z,0
2016-12-28T05:14:04.032Z,0
2016-12-28T05:15:03.685Z,0
2016-12-28T05:16:03.946Z,0
2016-12-28T05:17:03.902Z,0
2016-12-28T05:18:03.255Z,0
2016-12-28T05:19:03.209Z,0
2016-12-28T05:20:03.467Z,0
2016-12-28T05:21:03.724Z,0
2016-12-28T05:22:03.377Z,0
2016-12-28T05:23:03.333Z,0
2016-12-28T05:24:03.292Z,0
2016-12-28T05:25:03.549Z,0
2016-12-28T05:26:03.507Z,0
2016-12-28T05:27:02.857Z,0
2016-12-28T05:28:02.810Z,0
2016-12-28T05:29:03.071Z,0
2016-12-28T05:30:03.026Z,0
2016-12-28T05:31:03.283Z,0
2016-12-28T05:32:02.938Z,0
2016-12-28T05:33:03.193Z,0
2016-12-28T05:34:03.147Z,0
2016-12-28T05:35:02.804Z,0
2016-12-28T05:36:02.759Z,0
2016-12-28T05:37:02.714Z,0
2016-12-28T05:38:02.977Z,0
2016-12-28T05:39:02.930Z,0
2016-12-28T05:40:02.608Z,0
2016-12-28T05:41:02.538Z,0
2016-12-28T05:42:02.190Z,0
2016-12-28T05:43:02.449Z,0
2016-12-28T05:44:02.405Z,0
2016-12-28T05:45:02.666Z,0
2016-12-28T05:46:02.619Z,0
2016-12-28T05:47:02.299Z,0
2016-12-28T05:48:02.535Z,0
2016-12-28T05:49:02.193Z,0
2016-12-28T05:50:02.140Z,0
2016-12-28T05:51:02.401Z,0
2016-12-28T05:52:02.364Z,0
2016-12-28T05:53:02.313Z,0
2016-12-28T05:54:01.963Z,0
2016-12-28T05:55:02.233Z,0
2016-12-28T05:56:01.879Z,0
2016-12-28T05:57:02.134Z,0
2016-12-28T05:58:02.091Z,0
2016-12-28T05:59:01.745Z,0
2016-12-28T06:00:02.004Z,0
2016-12-28T06:01:01.959Z,0
2016-12-28T06:02:01.610Z,0
2016-12-28T06:03:01.896Z,0
2016-12-28T06:04:01.524Z,0
2016-12-28T06:05:01.179Z,0
2016-12-28T06:06:01.738Z,0
2016-12-28T06:07:01.695Z,0
2016-12-28T06:08:01.653Z,0
2016-12-28T06:09:01.606Z,0
2016-12-28T06:10:01.563Z,0
2016-12-28T06:11:01.518Z,0
2016-12-28T06:12:01.477Z,0
2016-12-28T06:13:01.134Z,0
2016-12-28T06:14:01.411Z,0
2016-12-28T06:15:01.378Z,0
2016-12-28T06:16:00.992Z,0
2016-12-28T06:17:00.958Z,0
2016-12-28T06:18:01.207Z,0
2016-12-28T06:19:00.877Z,0
2016-12-28T06:20:01.131Z,0
2016-12-28T06:21:01.073Z,0
2016-12-28T06:22:01.034Z,0
2016-12-28T06:23:00.986Z,0
2016-12-28T06:24:00.639Z,0
2016-12-28T06:25:00.906Z,0
2016-12-28T06:26:00.857Z,0
2016-12-28T06:27:00.813Z,0
2016-12-28T06:28:00.769Z,0
2016-12-28T06:29:00.725Z,0
2016-12-28T06:30:00.677Z,4
2016-12-28T06:31:00.656Z,4
2016-12-28T06:32:00.290Z,4
2016-12-28T06:33:00.547Z,0
2016-12-28T06:34:00.225Z,4
2016-12-28T06:35:00.454Z,4
2016-12-28T06:36:00.414Z,4
2016-12-28T06:37:00.069Z,4
2016-12-28T06:38:00.324Z,4
2016-12-28T06:39:00.287Z,8
2016-12-28T06:40:00.237Z,8
2016-12-28T06:41:00.194Z,12
2016-12-28T06:42:00.174Z,8
2016-12-28T06:43:00.101Z,12
2016-12-28T06:44:00.056Z,12
2016-12-28T06:44:59.709Z,16
2016-12-28T06:45:59.972Z,20
2016-12-28T06:46:59.924Z,20
2016-12-28T06:47:59.883Z,24
2016-12-28T06:48:59.836Z,28
2016-12-28T06:49:59.792Z,36
2016-12-28T06:50:59.442Z,44
2016-12-28T06:51:59.404Z,48
2016-12-28T06:52:59.656Z,56
2016-12-28T06:53:59.312Z,64
2016-12-28T06:54:59.275Z,72
2016-12-28T06:55:58.920Z,88
2016-12-28T06:56:59.179Z,96
2016-12-28T06:57:59.437Z,108
2016-12-28T06:58:59.395Z,124
2016-12-28T06:59:59.351Z,136
2016-12-28T07:00:59.000Z,148
2016-12-28T07:01:58.960Z,164
2016-12-28T07:02:58.967Z,176
2016-12-28T07:03:59.175Z,196
2016-12-28T07:04:59.127Z,220
2016-12-28T07:05:59.085Z,240
2016-12-28T07:06:58.743Z,264
2016-12-28T07:07:58.991Z,292
2016-12-28T07:08:58.954Z,320
2016-12-28T07:09:58.904Z,344
2016-12-28T07:10:58.864Z,372
2016-12-28T07:11:58.817Z,408
2016-12-28T07:12:58.770Z,440
2016-12-28T07:13:58.420Z,472
2016-12-28T07:14:58.075Z,516
2016-12-28T07:15:58.633Z,564
2016-12-28T07:16:58.592Z,620
2016-12-28T07:17:58.243Z,680
2016-12-28T07:18:58.198Z,740
2016-12-28T07:19:58.912Z,808
2016-12-28T07:20:58.571Z,884
2016-12-28T07:21:58.531Z,1012
2016-12-28T07:22:58.778Z,1184
2016-12-28T07:23:58.440Z,1336
2016-12-28T07:24:58.695Z,1468
2016-12-28T07:25:58.348Z,1580
2016-12-28T07:26:58.601Z,1684
2016-12-28T07:27:58.559Z,1752
2016-12-28T07:28:58.213Z,1856
2016-12-28T07:29:58.174Z,1988
2016-12-28T07:30:58.422Z,2088
2016-12-28T07:31:58.382Z,2216
2016-12-28T07:32:58.041Z,2328
2016-12-28T07:33:57.995Z,2436
2016-12-28T07:34:57.947Z,2556
2016-12-28T07:35:58.207Z,2656
2016-12-28T07:36:58.163Z,2724
2016-12-28T07:37:57.896Z,2844
2016-12-28T07:38:57.474Z,3000
2016-12-28T07:39:58.033Z,3168
2016-12-28T07:40:57.694Z,3376
2016-12-28T07:41:57.334Z,3552
2016-12-28T07:42:57.604Z,3688
2016-12-28T07:43:57.853Z,3816
2016-12-28T07:44:57.817Z,4012
2016-12-28T07:45:57.487Z,4212
2016-12-28T07:46:57.422Z,4324
2016-12-28T07:47:57.683Z,4432
2016-12-28T07:48:57.640Z,4348
2016-12-28T07:49:57.602Z,4288
2016-12-28T07:50:57.551Z,4424
2016-12-28T07:51:57.518Z,4908
2016-12-28T07:52:57.464Z,5260
2016-12-28T07:53:57.117Z,5452
2016-12-28T07:54:57.384Z,5476
2016-12-28T07:55:57.339Z,5664
2016-12-28T07:56:56.688Z,5796
2016-12-28T07:57:56.948Z,5856
2016-12-28T07:58:56.905Z,6072
2016-12-28T07:59:56.862Z,5872
2016-12-28T08:00:56.829Z,6116
2016-12-28T08:01:56.780Z,6168
2016-12-28T08:02:57.038Z,6404
2016-12-28T08:03:56.997Z,6536
2016-12-28T08:04:56.949Z,6336
2016-12-28T08:05:56.906Z,6428
2016-12-28T08:06:56.565Z,6968
2016-12-28T08:07:56.525Z,7580
2016-12-28T08:08:56.480Z,7212
2016-12-28T08:09:56.736Z,6988
2016-12-28T08:10:56.703Z,7072
2016-12-28T08:11:56.655Z,7628
2016-12-28T08:12:56.311Z,8060
2016-12-28T08:13:56.268Z,7784
2016-12-28T08:14:56.537Z,8116
2016-12-28T08:15:55.879Z,8768
2016-12-28T08:16:56.445Z,9364
2016-12-28T08:17:56.407Z,9664
2016-12-28T08:18:56.373Z,11248
2016-12-28T08:19:56.322Z,11664
2016-12-28T08:20:56.275Z,11824
2016-12-28T08:21:55.639Z,13012
2016-12-28T08:22:55.893Z,14240
2016-12-28T08:23:56.153Z,15904
2016-12-28T08:24:55.811Z,16768
2016-12-28T08:25:55.796Z,15936
2016-12-28T08:26:55.730Z,17120
2016-12-28T08:27:55.385Z,16576
2016-12-28T08:28:55.037Z,15552
2016-12-28T08:29:55.611Z,14848
2016-12-28T08:30:55.258Z,14080
2016-12-28T08:31:55.524Z,13208
2016-12-28T08:32:55.482Z,16128
2016-12-28T08:33:55.439Z,17696
2016-12-28T08:34:55.402Z,20128
2016-12-28T08:35:55.359Z,20896
2016-12-28T08:36:55.009Z,21344
2016-12-28T08:37:55.274Z,20384
2016-12-28T08:38:54.930Z,19584
2016-12-28T08:39:54.896Z,19520
2016-12-28T08:40:55.455Z,19744
2016-12-28T08:41:55.416Z,19456
2016-12-28T08:42:55.071Z,17792
2016-12-28T08:43:54.759Z,16896
2016-12-28T08:44:55.297Z,12888
2016-12-28T08:45:54.350Z,12904
2016-12-28T08:46:55.216Z,12872
2016-12-28T08:47:55.188Z,20000
2016-12-28T08:48:55.134Z,21600
2016-12-28T08:49:54.794Z,20928
2016-12-28T08:50:54.753Z,20576
2016-12-28T08:51:55.045Z,21728
2016-12-28T08:52:54.978Z,23008
2016-12-28T08:53:54.637Z,23552
2016-12-28T08:54:54.606Z,22560
2016-12-28T08:55:54.591Z,23392
2016-12-28T08:56:54.519Z,24320
2016-12-28T08:57:54.180Z,24736
2016-12-28T08:58:54.748Z,25344
2016-12-28T08:59:54.705Z,24000
2016-12-28T09:00:54.663Z,24672
2016-12-28T09:01:54.631Z,27136
2016-12-28T09:02:54.589Z,28544
2016-12-28T09:03:54.556Z,25440
2016-12-28T09:04:54.513Z,25472
2016-12-28T09:05:54.186Z,26048
2016-12-28T09:06:54.138Z,25344
2016-12-28T09:07:54.114Z,27136
2016-12-28T09:08:54.366Z,27136
2016-12-28T09:09:54.354Z,29824
2016-12-28T09:10:53.987Z,30848
2016-12-28T09:11:54.260Z,32448
2016-12-28T09:12:53.914Z,33376
2016-12-28T09:13:54.179Z,34720
2016-12-28T09:14:53.856Z,33888
2016-12-28T09:15:53.803Z,33440
2016-12-28T09:16:53.771Z,32224
2016-12-28T09:17:53.732Z,33024
2016-12-28T09:18:54.006Z,32896
2016-12-28T09:19:53.966Z,32384
2016-12-28T09:20:53.325Z,32512
2016-12-28T09:21:53.895Z,32928
2016-12-28T09:22:52.951Z,32640
2016-12-28T09:23:53.823Z,32896
2016-12-28T09:24:53.485Z,24160
2016-12-28T09:25:52.848Z,29344
2016-12-28T09:26:53.719Z,33824
2016-12-28T09:27:53.679Z,33728
2016-12-28T09:28:53.344Z,33152
2016-12-28T09:29:53.611Z,34784
2016-12-28T09:30:53.580Z,34304
2016-12-28T09:31:53.552Z,34304
2016-12-28T09:32:53.517Z,37184
2016-12-28T09:33:53.480Z,36512
2016-12-28T09:34:53.147Z,35616
2016-12-28T09:35:53.109Z,35680
2016-12-28T09:36:53.381Z,33696
2016-12-28T09:37:52.454Z,33952
2016-12-28T09:38:52.707Z,34432
2016-12-28T09:39:52.979Z,35488
2016-12-28T09:40:52.943Z,35008
2016-12-28T09:41:53.220Z,34752
2016-12-28T09:42:52.884Z,36384
2016-12-28T09:43:53.145Z,36576
2016-12-28T09:44:52.816Z,36608
2016-12-28T09:45:52.786Z,36864
2016-12-28T09:46:52.754Z,37088
2016-12-28T09:47:52.719Z,38176
2016-12-28T09:48:52.985Z,41376
2016-12-28T09:49:52.655Z,40256
2016-12-28T09:50:52.622Z,38496
2016-12-28T09:51:52.590Z,39424
2016-12-28T09:52:52.869Z,38656
2016-12-28T09:53:52.527Z,38816
2016-12-28T09:54:52.494Z,38720
2016-12-28T09:55:52.770Z,38432
2016-12-28T09:56:52.735Z,39552
2016-12-28T09:57:52.705Z,39072
2016-12-28T09:58:52.373Z,39872
2016-12-28T09:59:52.338Z,42944
2016-12-28T10:00:52.620Z,41952
2016-12-28T10:01:52.585Z,39968
2016-12-28T10:02:52.247Z,40480
2016-12-28T10:03:52.534Z,38816
2016-12-28T10:04:52.187Z,35392
2016-12-28T10:05:52.161Z,26560
2016-12-28T10:06:52.434Z,22688
2016-12-28T10:07:52.396Z,22496
2016-12-28T10:08:52.068Z,22080
2016-12-28T10:09:51.731Z,21504
2016-12-28T10:10:52.005Z,21280
2016-12-28T10:11:51.983Z,21056
2016-12-28T10:12:51.942Z,21024
2016-12-28T10:13:52.221Z,20544
2016-12-28T10:14:51.886Z,19584
2016-12-28T10:15:51.876Z,19488
2016-12-28T10:16:52.124Z,19008
2016-12-28T10:17:52.092Z,18432
2016-12-28T10:18:51.770Z,19136
2016-12-28T10:19:51.730Z,19136
2016-12-28T10:20:51.704Z,18304
2016-12-28T10:21:51.980Z,18336
2016-12-28T10:22:51.638Z,17312
2016-12-28T10:23:51.610Z,18368
2016-12-28T10:24:51.580Z,18208
2016-12-28T10:25:51.851Z,18080
2016-12-28T10:26:51.822Z,18304
2016-12-28T10:27:51.791Z,18144
2016-12-28T10:28:51.760Z,18240
2016-12-28T10:29:51.736Z,17664
2016-12-28T10:30:51.698Z,19072
2016-12-28T10:31:51.666Z,19328
2016-12-28T10:32:51.637Z,19936
2016-12-28T10:33:51.607Z,20320
2016-12-28T10:34:51.578Z,20928
2016-12-28T10:35:51.548Z,21536
2016-12-28T10:36:51.510Z,21376
2016-12-28T10:37:50.876Z,21600
2016-12-28T10:38:51.155Z,21920
2016-12-28T10:39:51.118Z,21696
2016-12-28T10:40:51.384Z,21664
2016-12-28T10:41:51.057Z,22048
2016-12-28T10:42:51.325Z,21600
2016-12-28T10:43:50.998Z,22720
2016-12-28T10:44:50.655Z,25344
2016-12-28T10:45:51.232Z,33088
2016-12-28T10:46:51.205Z,39136
2016-12-28T10:47:50.868Z,38560
2016-12-28T10:48:51.140Z,38528
2016-12-28T10:49:50.803Z,40032
2016-12-28T10:50:51.099Z,38144
2016-12-28T10:51:50.743Z,37408
2016-12-28T10:52:51.017Z,35776
2016-12-28T10:53:50.684Z,41056
2016-12-28T10:54:50.350Z,39200
2016-12-28T10:55:50.619Z,39136
2016-12-28T10:56:50.589Z,40160
2016-12-28T10:57:50.556Z,40640
2016-12-28T10:58:50.528Z,40128
2016-12-28T10:59:50.795Z,39232
2016-12-28T11:00:50.474Z,38720
2016-12-28T11:01:50.432Z,39136
2016-12-28T11:02:50.698Z,37152
2016-12-28T11:03:50.376Z,37888
2016-12-28T11:04:50.340Z,37472
2016-12-28T11:05:50.614Z,39136
2016-12-28T11:06:50.275Z,38912
2016-12-28T11:07:50.256Z,39136
2016-12-28T11:08:50.213Z,37760
2016-12-28T11:09:50.188Z,35968
2016-12-28T11:10:49.855Z,35392
2016-12-28T11:11:50.428Z,30880
2016-12-28T11:12:50.100Z,23136
2016-12-28T11:13:50.066Z,19840
2016-12-28T11:14:49.745Z,18688
2016-12-28T11:15:50.307Z,18528
2016-12-28T11:16:49.972Z,17952
2016-12-28T11:17:49.936Z,18208
2016-12-28T11:18:50.210Z,18464
2016-12-28T11:19:49.580Z,15400
2016-12-28T11:20:49.846Z,13556
2016-12-28T11:21:50.118Z,13088
2016-12-28T11:22:50.089Z,15192
2016-12-28T11:23:49.758Z,15460
2016-12-28T11:24:49.733Z,15620
2016-12-28T11:25:49.703Z,15452
2016-12-28T11:26:49.354Z,15092
2016-12-28T11:27:49.929Z,15768
2016-12-28T11:28:49.894Z,16928
2016-12-28T11:29:49.864Z,16608
2016-12-28T11:30:49.227Z,15472
2016-12-28T11:31:49.538Z,14940
2016-12-28T11:32:49.761Z,14780
2016-12-28T11:33:49.427Z,14436
2016-12-28T11:34:49.395Z,14244
2016-12-28T11:35:49.663Z,14208
2016-12-28T11:36:49.329Z,14260
2016-12-28T11:37:49.302Z,13868
2016-12-28T11:38:49.266Z,13236
2016-12-28T11:39:49.531Z,13028
2016-12-28T11:40:49.201Z,12676
2016-12-28T11:41:49.163Z,12152
2016-12-28T11:42:49.427Z,11580
2016-12-28T11:43:49.095Z,10900
2016-12-28T11:44:49.364Z,10488
2016-12-28T11:45:49.326Z,9544
2016-12-28T11:46:48.992Z,9496
2016-12-28T11:47:48.957Z,8960
2016-12-28T11:48:49.226Z,8876
2016-12-28T11:49:49.213Z,8912
2016-12-28T11:50:48.870Z,8764
2016-12-28T11:51:49.120Z,8148
2016-12-28T11:52:49.007Z,7860
2016-12-28T11:53:48.530Z,7780
2016-12-28T11:54:48.103Z,8160
2016-12-28T11:55:49.225Z,8572
2016-12-28T11:56:49.220Z,8412
2016-12-28T11:57:48.794Z,8156
2016-12-28T11:58:48.733Z,7824
2016-12-28T11:59:48.695Z,8400
2016-12-28T12:00:49.049Z,8308
2016-12-28T12:01:49.006Z,8288
2016-12-28T12:02:48.588Z,8116
2016-12-28T12:03:48.939Z,7828
2016-12-28T12:04:48.528Z,7632
2016-12-28T12:05:48.475Z,7360
2016-12-28T12:06:48.829Z,7376
2016-12-28T12:07:48.404Z,7232
2016-12-28T12:08:48.368Z,7080
2016-12-28T12:09:48.715Z,6984
2016-12-28T12:10:48.293Z,7244
2016-12-28T12:11:48.644Z,7108
2016-12-28T12:12:48.234Z,7120
2016-12-28T12:13:48.183Z,6924
2016-12-28T12:14:48.522Z,6648
2016-12-28T12:15:48.484Z,6512
2016-12-28T12:16:48.449Z,6276
2016-12-28T12:17:48.031Z,5948
2016-12-28T12:18:48.385Z,5696
2016-12-28T12:19:47.947Z,5564
2016-12-28T12:20:48.308Z,5524
2016-12-28T12:21:47.907Z,5488
2016-12-28T12:22:47.841Z,5452
2016-12-28T12:23:47.415Z,5436
2016-12-28T12:24:47.375Z,5416
2016-12-28T12:25:47.728Z,5384
2016-12-28T12:26:48.072Z,5320
2016-12-28T12:27:47.652Z,5268
2016-12-28T12:28:47.624Z,5216
2016-12-28T12:29:47.961Z,5148
2016-12-28T12:30:47.928Z,5080
2016-12-28T12:31:47.137Z,5040
2016-12-28T12:32:47.874Z,4992
2016-12-28T12:33:47.803Z,4924
2016-12-28T12:34:47.766Z,4872
2016-12-28T12:35:46.959Z,4816
2016-12-28T12:36:47.304Z,4752
2016-12-28T12:37:47.652Z,4688
2016-12-28T12:38:47.650Z,4644
2016-12-28T12:39:47.570Z,4596
2016-12-28T12:40:47.152Z,4556
2016-12-28T12:41:47.118Z,4504
2016-12-28T12:42:47.467Z,4460
2016-12-28T12:43:47.422Z,4424
2016-12-28T12:44:47.390Z,4376
2016-12-28T12:45:46.581Z,4332
2016-12-28T12:46:46.939Z,4288
2016-12-28T12:47:47.265Z,4256
2016-12-28T12:48:47.235Z,4228
2016-12-28T12:49:46.804Z,4200
2016-12-28T12:50:47.155Z,4172
2016-12-28T12:51:47.116Z,4164
2016-12-28T12:52:47.075Z,4160
2016-12-28T12:53:47.036Z,4152
2016-12-28T12:54:46.612Z,4156
2016-12-28T12:55:46.957Z,4140
2016-12-28T12:56:46.919Z,4112
2016-12-28T12:57:46.500Z,4076
2016-12-28T12:58:46.844Z,4028
2016-12-28T12:59:46.421Z,4012
2016-12-28T13:00:46.767Z,4004
2016-12-28T13:01:46.385Z,4024
2016-12-28T13:02:46.325Z,4016
2016-12-28T13:03:46.652Z,3996
2016-12-28T13:04:46.237Z,3980
2016-12-28T13:05:46.190Z,3952
2016-12-28T13:06:46.547Z,3920
2016-12-28T13:07:46.112Z,3900
2016-12-28T13:08:46.069Z,3876
2016-12-28T13:09:46.416Z,3856
2016-12-28T13:10:46.374Z,3832
2016-12-28T13:11:45.958Z,3816
2016-12-28T13:12:45.911Z,3800
2016-12-28T13:13:45.493Z,3788
2016-12-28T13:14:45.849Z,3772
2016-12-28T13:15:46.179Z,3756
2016-12-28T13:16:46.140Z,3724
2016-12-28T13:17:45.335Z,3696
2016-12-28T13:18:45.677Z,3684
2016-12-28T13:19:45.633Z,3676
2016-12-28T13:20:45.980Z,3672
2016-12-28T13:21:45.941Z,3668
2016-12-28T13:22:45.899Z,3648
2016-12-28T13:23:45.867Z,3628
2016-12-28T13:24:45.443Z,3612
2016-12-28T13:25:45.790Z,3604
2016-12-28T13:26:45.448Z,3596
2016-12-28T13:27:45.323Z,3584
2016-12-28T13:28:45.666Z,3576
2016-12-28T13:29:45.240Z,3536
2016-12-28T13:30:44.814Z,3520
2016-12-28T13:31:45.546Z,3496
2016-12-28T13:32:45.508Z,3468
2016-12-28T13:33:45.080Z,3464
2016-12-28T13:34:45.430Z,3448
2016-12-28T13:35:45.402Z,3448
2016-12-28T13:36:44.969Z,3444
2016-12-28T13:37:45.311Z,3440
2016-12-28T13:38:44.890Z,3428
2016-12-28T13:39:45.233Z,3424
2016-12-28T13:40:44.810Z,3412
2016-12-28T13:41:45.152Z,3392
2016-12-28T13:42:44.723Z,3376
2016-12-28T13:43:45.075Z,3368
2016-12-28T13:44:45.072Z,3364
2016-12-28T13:45:44.607Z,3348
2016-12-28T13:46:44.954Z,3328
2016-12-28T13:47:44.533Z,3300
2016-12-28T13:48:44.514Z,3272
2016-12-28T13:49:44.444Z,3248
2016-12-28T13:50:44.400Z,3224
2016-12-28T13:51:44.774Z,3208
2016-12-28T13:52:44.712Z,3192